Airfield :







YOU CAN JOIN US ON...

 
LOGIN :

Register | Disclaimer

   EN    FR    IT 

 









Legend :    VFR   Marginal VFR   IFR   Intensive IFR   Very Intensive IFR
Visi :
Ceiling :
>= 8 km
>= 3000ft
5 to 8 km
1000 to 3000 ft
1500m to 5 km
500 to 1000 ft
800 to 1500m
200 to 500 ft
< 800m
< 200 ft
Symbols :   Thunderstorms  Fog  Heavy snow  Heavy precipitations  Wind > 20 kt






- Airport Elevation : 118 ft
- IATA code : YUL


CYUL - Montréal - Pierre-Elliott-Trudeau Int.

CURRENT METAR :
  • 261500Z 03003KT 340V110 30SM FEW045 SCT250 21/10 A2996 RMK CU1CI3 CU TR SLP146 DENSITY ALT 800FT

EXPIRED METARs :
  • 261400Z 01004KT 300V030 30SM FEW035 FEW250 19/10 A2996 RMK CU1CI1 CU TR CI TR SLP147 DENSITY ALT 600FT
  • 261300Z 31004KT 270V340 30SM FEW150 SCT240 18/10 A2997 RMK AC1CI3 AC TR SLP149 DENSITY ALT 500FT
  • 261200Z 27004KT 250V330 30SM FEW150 SCT240 16/11 A2995 RMK AC1CI2 SLP143
  • 261100Z 00000KT 30SM FEW090 FEW240 15/11 A2993 RMK AC1CI1 CI TR SLP137

TAF TAF CYUL
Valid from the 26 at 15:00 until the 27 at 12:00 UTC


261440Z 2615/2712 VRB03KT P6SM FEW040 FEW240
FM270500 05008KT P6SM SCT100 BKN250
FM271100 12010KT P6SM BKN040 BKN090 OVC200 RMK NXT FCST BY 261800Z
ATIS : ENG : +1 514-633-3037 FRA : +1 514-633-3034
CZUL FIR / North America



MET'MAP, your aeronautical weather chart ! - Copyright ORBIFLY December 2007 - Disclaimer

ORBIFLY MET'MAP TEAM :

Programming & Development : Alexandra Zaïnal
Original concept : Baudouin d'Aumeries
Technical & hardware support : Manuel Goepfert
Assistance : Marc-Olivier Méhu




SOURCES & CREDITS :

   NOAA